createdAt,value
2018-04-02T00:00:26.213Z,3.10
2018-04-02T00:01:28.745Z,5.95
2018-04-02T00:02:31.274Z,2.35
2018-04-02T00:03:35.368Z,2.92
2018-04-02T00:04:38.622Z,2.55
2018-04-02T00:05:41.116Z,2.62
2018-04-02T00:06:44.392Z,2.45
2018-04-02T00:07:46.971Z,1.73
2018-04-02T00:08:50.299Z,2.47
2018-04-02T00:09:53.575Z,7.97
2018-04-02T00:10:56.068Z,1.62
2018-04-02T00:11:58.574Z,2.75
2018-04-02T00:13:01.880Z,6.53
2018-04-02T00:14:04.422Z,2.20
2018-04-02T00:15:07.692Z,2.95
2018-04-02T00:16:10.200Z,2.67
2018-04-02T00:17:12.696Z,2.87
2018-04-02T00:18:15.222Z,2.60
2018-04-02T00:19:17.736Z,2.55
2018-04-02T00:20:20.235Z,2.30
2018-04-02T00:21:23.499Z,2.80
2018-04-02T00:22:26.087Z,2.10
2018-04-02T00:23:29.396Z,2.67
2018-04-02T00:24:31.931Z,2.65
2018-04-02T00:25:35.229Z,3.10
2018-04-02T00:26:37.746Z,4.57
2018-04-02T00:27:40.271Z,2.47
2018-04-02T00:28:42.788Z,2.85
2018-04-02T00:29:45.285Z,3.67
2018-04-02T00:30:47.784Z,2.03
2018-04-02T00:31:50.290Z,3.45
2018-04-02T00:32:52.802Z,2.30
2018-04-02T00:33:55.301Z,2.85
2018-04-02T00:34:57.816Z,3.05
2018-04-02T00:36:00.375Z,4.18
2018-04-02T00:37:03.664Z,2.87
2018-04-02T00:38:06.184Z,2.45
2018-04-02T00:39:08.684Z,4.93
2018-04-02T00:40:11.972Z,2.30
2018-04-02T00:41:15.271Z,2.45
2018-04-02T00:42:17.776Z,2.20
2018-04-02T00:43:20.296Z,2.95
2018-04-02T00:44:22.790Z,2.33
2018-04-02T00:45:25.286Z,3.05
2018-04-02T00:46:27.825Z,2.35
2018-04-02T00:47:30.313Z,2.70
2018-04-02T00:48:32.808Z,2.75
2018-04-02T00:49:36.104Z,8.90
2018-04-02T00:50:38.607Z,2.70
2018-04-02T00:51:41.109Z,2.20
2018-04-02T00:52:43.628Z,2.50
2018-04-02T00:53:46.159Z,2.40
2018-04-02T00:54:49.416Z,2.22
2018-04-02T00:55:51.916Z,2.42
2018-04-02T00:56:54.508Z,2.83
2018-04-02T00:57:57.031Z,2.03
2018-04-02T00:59:00.304Z,2.00
2018-04-02T01:00:03.572Z,2.12
2018-04-02T01:01:06.063Z,2.37
2018-04-02T01:02:09.477Z,2.65
2018-04-02T01:03:12.054Z,2.45
2018-04-02T01:04:14.673Z,1.80
2018-04-02T01:05:18.026Z,2.60
2018-04-02T01:06:20.489Z,1.90
2018-04-02T01:07:22.983Z,2.17
2018-04-02T01:08:25.568Z,5.45
2018-04-02T01:09:28.843Z,3.10
2018-04-02T01:10:32.136Z,2.00
2018-04-02T01:11:35.392Z,4.72
2018-04-02T01:12:37.993Z,2.37
2018-04-02T01:13:40.499Z,2.10
2018-04-02T01:14:43.033Z,1.60
2018-04-02T01:15:45.536Z,4.53
2018-04-02T01:16:48.028Z,2.70
2018-04-02T01:17:51.297Z,2.15
2018-04-02T01:18:54.564Z,2.17
2018-04-02T01:19:57.082Z,2.20
2018-04-02T01:20:59.649Z,2.85
2018-04-02T01:22:02.906Z,1.77
2018-04-02T01:23:06.216Z,2.28
2018-04-02T01:24:09.511Z,2.10
2018-04-02T01:25:12.017Z,2.42
2018-04-02T01:26:14.518Z,2.37
2018-04-02T01:27:17.775Z,2.62
2018-04-02T01:28:20.292Z,1.98
2018-04-02T01:29:22.788Z,2.20
2018-04-02T01:30:25.304Z,2.30
2018-04-02T01:31:28.564Z,3.87
2018-04-02T01:32:31.060Z,2.42
2018-04-02T01:33:33.557Z,2.08
2018-04-02T01:34:36.050Z,1.80
2018-04-02T01:35:38.555Z,3.00
2018-04-02T01:36:41.064Z,2.90
2018-04-02T01:37:43.573Z,2.35
2018-04-02T01:38:46.866Z,1.85
2018-04-02T01:39:50.174Z,1.98
2018-04-02T01:40:52.680Z,3.58
2018-04-02T01:41:55.230Z,2.37
2018-04-02T01:42:57.741Z,2.78
2018-04-02T01:44:00.988Z,2.60
2018-04-02T01:45:03.496Z,2.85
2018-04-02T01:46:06.000Z,4.78
2018-04-02T01:47:08.508Z,2.05
2018-04-02T01:48:11.774Z,1.83
2018-04-02T01:49:14.276Z,2.85
2018-04-02T01:50:16.779Z,7.18
2018-04-02T01:51:19.317Z,2.45
2018-04-02T01:52:21.829Z,1.70
2018-04-02T01:53:24.321Z,2.33
2018-04-02T01:54:27.593Z,1.50
2018-04-02T01:55:30.085Z,2.12
2018-04-02T01:56:32.589Z,3.30
2018-04-02T01:57:35.096Z,2.15
2018-04-02T01:58:38.357Z,1.90
2018-04-02T01:59:40.853Z,1.65
2018-04-02T02:00:44.120Z,2.55
2018-04-02T02:01:46.661Z,2.37
2018-04-02T02:02:49.177Z,7.30
2018-04-02T02:03:51.679Z,1.70
2018-04-02T02:04:54.182Z,2.78
2018-04-02T02:05:56.677Z,1.70
2018-04-02T02:06:59.251Z,2.03
2018-04-02T02:08:01.781Z,1.90
2018-04-02T02:09:04.277Z,3.62
2018-04-02T02:10:06.780Z,1.92
2018-04-02T02:11:09.415Z,1.70
2018-04-02T02:12:11.916Z,2.30
2018-04-02T02:13:14.520Z,1.90
2018-04-02T02:14:17.808Z,1.98
2018-04-02T02:15:20.312Z,1.87
2018-04-02T02:16:22.840Z,5.97
2018-04-02T02:17:26.101Z,3.87
2018-04-02T02:18:28.608Z,1.70
2018-04-02T02:19:31.107Z,2.40
2018-04-02T02:20:33.657Z,2.45
2018-04-02T02:21:36.190Z,2.22
2018-04-02T02:22:39.455Z,2.35
2018-04-02T02:23:41.964Z,3.40
2018-04-02T02:24:44.517Z,1.90
2018-04-02T02:25:47.068Z,2.12
2018-04-02T02:26:50.372Z,2.40
2018-04-02T02:27:52.913Z,1.83
2018-04-02T02:28:56.202Z,3.75
2018-04-02T02:29:59.493Z,2.10
2018-04-02T02:31:01.987Z,2.00
2018-04-02T02:32:04.492Z,2.67
2018-04-02T02:33:07.087Z,1.70
2018-04-02T02:34:10.365Z,1.80
2018-04-02T02:35:13.649Z,4.40
2018-04-02T02:36:16.912Z,2.37
2018-04-02T02:37:19.445Z,2.15
2018-04-02T02:38:21.940Z,2.15
2018-04-02T02:39:24.541Z,1.87
2018-04-02T02:40:27.052Z,1.85
2018-04-02T02:41:29.564Z,4.70
2018-04-02T02:42:32.833Z,1.70
2018-04-02T02:43:36.098Z,2.62
2018-04-02T02:44:38.630Z,2.03
2018-04-02T02:45:41.126Z,1.73
2018-04-02T02:46:43.627Z,2.10
2018-04-02T02:47:46.892Z,2.30
2018-04-02T02:48:49.480Z,2.05
2018-04-02T02:49:52.749Z,1.80
2018-04-02T02:50:56.064Z,2.62
2018-04-02T02:51:58.592Z,1.80
2018-04-02T02:53:01.100Z,2.00
2018-04-02T02:54:03.615Z,2.50
2018-04-02T02:55:06.115Z,2.00
2018-04-02T02:56:08.620Z,2.80
2018-04-02T02:57:11.124Z,2.15
2018-04-02T02:58:14.383Z,2.70
2018-04-02T02:59:16.982Z,1.90
2018-04-02T03:00:20.272Z,1.50
2018-04-02T03:01:23.644Z,3.50
2018-04-02T03:02:26.913Z,2.20
2018-04-02T03:03:29.423Z,2.17
2018-04-02T03:04:31.951Z,1.80
2018-04-02T03:05:35.229Z,2.35
2018-04-02T03:06:37.833Z,2.65
2018-04-02T03:07:40.329Z,2.00
2018-04-02T03:08:42.833Z,2.00
2018-04-02T03:09:45.328Z,2.05
2018-04-02T03:10:47.875Z,2.12
2018-04-02T03:11:51.139Z,1.92
2018-04-02T03:12:53.635Z,2.75
2018-04-02T03:13:56.139Z,1.70
2018-04-02T03:14:58.680Z,3.20
2018-04-02T03:16:01.197Z,2.35
2018-04-02T03:17:03.796Z,2.20
2018-04-02T03:18:06.304Z,1.90
2018-04-02T03:19:08.795Z,6.72
2018-04-02T03:20:11.289Z,1.75
2018-04-02T03:21:14.584Z,1.80
2018-04-02T03:22:17.103Z,1.92
2018-04-02T03:23:19.608Z,1.62
2018-04-02T03:24:22.107Z,2.78
2018-04-02T03:25:24.606Z,2.12
2018-04-02T03:26:27.208Z,1.95
2018-04-02T03:27:29.778Z,4.82
2018-04-02T03:28:32.276Z,1.98
2018-04-02T03:29:34.790Z,1.90
2018-04-02T03:30:38.058Z,1.50
2018-04-02T03:31:40.556Z,1.92
2018-04-02T03:32:43.059Z,2.78
2018-04-02T03:33:45.557Z,2.83
2018-04-02T03:34:48.824Z,2.05
2018-04-02T03:35:51.544Z,2.25
2018-04-02T03:36:54.044Z,2.10
2018-04-02T03:37:56.584Z,1.95
2018-04-02T03:38:59.128Z,2.30
2018-04-02T03:40:02.401Z,3.10
2018-04-02T03:41:05.695Z,2.55
2018-04-02T03:42:08.249Z,1.75
2018-04-02T03:43:11.521Z,3.15
2018-04-02T03:44:14.025Z,2.37
2018-04-02T03:45:16.519Z,3.45
2018-04-02T03:46:19.022Z,2.45
2018-04-02T03:47:22.320Z,2.12
2018-04-02T03:48:25.592Z,2.25
2018-04-02T03:49:28.860Z,3.70
2018-04-02T03:50:31.469Z,2.03
2018-04-02T03:51:33.969Z,3.33
2018-04-02T03:52:36.502Z,3.05
2018-04-02T03:53:39.034Z,1.70
2018-04-02T03:54:41.536Z,2.10
2018-04-02T03:55:44.028Z,2.03
2018-04-02T03:56:46.562Z,2.17
2018-04-02T03:57:49.047Z,1.73
2018-04-02T03:58:51.556Z,1.90
2018-04-02T03:59:54.140Z,3.05
2018-04-02T04:00:57.426Z,2.50
2018-04-02T04:02:00.679Z,1.70
2018-04-02T04:03:03.272Z,2.08
2018-04-02T04:04:05.847Z,2.15
2018-04-02T04:05:09.132Z,2.00
2018-04-02T04:06:11.723Z,2.00
2018-04-02T04:07:14.277Z,1.80
2018-04-02T04:08:16.784Z,2.15
2018-04-02T04:09:19.296Z,2.35
2018-04-02T04:10:21.853Z,2.42
2018-04-02T04:11:25.108Z,2.58
2018-04-02T04:12:27.603Z,1.73
2018-04-02T04:13:30.886Z,2.67
2018-04-02T04:14:34.159Z,2.12
2018-04-02T04:15:37.452Z,2.28
2018-04-02T04:16:40.727Z,2.17
2018-04-02T04:17:43.997Z,1.90
2018-04-02T04:18:46.512Z,1.80
2018-04-02T04:19:49.024Z,1.65
2018-04-02T04:20:51.574Z,2.25
2018-04-02T04:21:54.080Z,1.87
2018-04-02T04:22:57.336Z,2.50
2018-04-02T04:24:00.596Z,3.75
2018-04-02T04:25:03.092Z,1.80
2018-04-02T04:26:05.612Z,2.20
2018-04-02T04:27:08.112Z,2.22
2018-04-02T04:28:10.642Z,1.70
2018-04-02T04:29:13.204Z,2.20
2018-04-02T04:30:15.699Z,2.55
2018-04-02T04:31:18.208Z,1.50
2018-04-02T04:32:21.508Z,1.70
2018-04-02T04:33:24.018Z,1.62
2018-04-02T04:34:26.537Z,3.70
2018-04-02T04:35:29.088Z,2.20
2018-04-02T04:36:32.375Z,2.12
2018-04-02T04:37:35.689Z,2.10
2018-04-02T04:38:38.219Z,1.70
2018-04-02T04:39:41.479Z,2.45
2018-04-02T04:40:44.000Z,3.78
2018-04-02T04:41:46.656Z,3.33
2018-04-02T04:42:49.174Z,3.12
2018-04-02T04:43:51.698Z,6.50
2018-04-02T04:44:54.353Z,2.78
2018-04-02T04:45:56.907Z,2.40
2018-04-02T04:47:00.177Z,4.15
2018-04-02T04:48:03.556Z,2.53
2018-04-02T04:49:06.141Z,2.37
2018-04-02T04:50:09.411Z,3.42
2018-04-02T04:51:11.939Z,4.85
2018-04-02T04:52:14.435Z,2.60
2018-04-02T04:53:16.976Z,2.22
2018-04-02T04:54:19.489Z,1.80
2018-04-02T04:55:22.011Z,2.37
2018-04-02T04:56:24.517Z,1.75
2018-04-02T04:57:27.793Z,2.05
2018-04-02T04:58:31.067Z,2.62
2018-04-02T04:59:34.336Z,2.50
2018-04-02T05:00:36.852Z,2.42
2018-04-02T05:01:39.388Z,2.37
2018-04-02T05:02:42.656Z,2.37
2018-04-02T05:03:45.254Z,1.83
2018-04-02T05:04:47.790Z,1.62
2018-04-02T05:05:50.377Z,2.42
2018-04-02T05:06:53.635Z,1.50
2018-04-02T05:07:56.152Z,2.15
2018-04-02T05:08:58.640Z,1.73
2018-04-02T05:10:01.137Z,2.37
2018-04-02T05:11:03.625Z,2.87
2018-04-02T05:12:06.904Z,2.55
2018-04-02T05:13:09.432Z,2.42
2018-04-02T05:14:12.077Z,3.08
2018-04-02T05:15:14.607Z,2.03
2018-04-02T05:16:17.920Z,2.80
2018-04-02T05:17:20.423Z,4.95
2018-04-02T05:18:22.919Z,1.90
2018-04-02T05:19:26.195Z,1.60
2018-04-02T05:20:29.451Z,3.28
2018-04-02T05:21:31.972Z,1.75
2018-04-02T05:22:34.470Z,3.22
2018-04-02T05:23:36.970Z,1.60
2018-04-02T05:24:40.244Z,2.55
2018-04-02T05:25:42.738Z,1.58
2018-04-02T05:26:45.238Z,2.05
2018-04-02T05:27:47.745Z,1.80
2018-04-02T05:28:51.051Z,1.65
2018-04-02T05:29:53.573Z,2.15
2018-04-02T05:30:56.122Z,2.37
2018-04-02T05:31:58.590Z,2.62
2018-04-02T05:33:01.919Z,1.80
2018-04-02T05:34:05.177Z,2.40
2018-04-02T05:35:07.687Z,2.25
2018-04-02T05:36:10.176Z,2.53
2018-04-02T05:37:12.664Z,1.77
2018-04-02T05:38:15.276Z,2.53
2018-04-02T05:39:17.788Z,2.50
2018-04-02T05:40:20.292Z,2.62
2018-04-02T05:41:23.582Z,2.05
2018-04-02T05:42:33.852Z,2.25
2018-04-02T05:43:36.344Z,1.80
2018-04-02T05:44:38.858Z,2.22
2018-04-02T05:45:42.139Z,3.87
2018-04-02T05:46:45.428Z,2.17
2018-04-02T05:47:47.928Z,2.75
2018-04-02T05:48:50.451Z,2.45
2018-04-02T05:49:53.721Z,2.87
2018-04-02T05:50:56.342Z,3.67
2018-04-02T05:51:58.855Z,2.10
2018-04-02T05:53:01.462Z,3.83
2018-04-02T05:54:04.034Z,3.05
2018-04-02T05:55:06.552Z,2.47
2018-04-02T05:56:09.148Z,2.85
2018-04-02T05:57:12.412Z,2.17
2018-04-02T05:58:15.675Z,2.10
2018-04-02T05:59:18.176Z,2.30
2018-04-02T06:00:21.474Z,4.25
2018-04-02T06:01:24.022Z,7.60
2018-04-02T06:02:27.303Z,10.32
2018-04-02T06:03:30.578Z,2.75
2018-04-02T06:04:33.833Z,5.97
2018-04-02T06:05:36.329Z,2.25
2018-04-02T06:06:39.641Z,2.78
2018-04-02T06:07:42.173Z,3.20
2018-04-02T06:08:45.435Z,4.55
2018-04-02T06:09:47.944Z,3.75
2018-04-02T06:10:50.493Z,1.95
2018-04-02T06:11:53.755Z,2.35
2018-04-02T06:12:56.315Z,2.50
2018-04-02T06:13:58.812Z,3.92
2018-04-02T06:15:02.089Z,2.20
2018-04-02T06:16:05.388Z,2.75
2018-04-02T06:17:08.978Z,2.75
2018-04-02T06:18:11.484Z,2.95
2018-04-02T06:19:13.977Z,2.72
2018-04-02T06:20:16.606Z,2.58
2018-04-02T06:21:19.137Z,1.70
2018-04-02T06:22:22.431Z,2.35
2018-04-02T06:23:25.696Z,1.75
2018-04-02T06:24:28.960Z,2.37
2018-04-02T06:25:31.577Z,2.85
2018-04-02T06:26:34.138Z,1.85
2018-04-02T06:27:36.632Z,1.87
2018-04-02T06:28:39.264Z,2.90
2018-04-02T06:29:41.762Z,2.20
2018-04-02T06:30:44.268Z,2.75
2018-04-02T06:31:47.547Z,2.55
2018-04-02T06:32:50.132Z,2.47
2018-04-02T06:33:54.272Z,4.18
2018-04-02T06:34:56.760Z,5.87
2018-04-02T06:35:59.252Z,17.73
2018-04-02T06:37:02.588Z,1.70
2018-04-02T06:38:05.077Z,1.70
2018-04-02T06:39:07.808Z,2.03
2018-04-02T06:40:10.308Z,6.45
2018-04-02T06:41:12.830Z,2.97
2018-04-02T06:42:15.325Z,2.78
2018-04-02T06:43:17.822Z,2.25
2018-04-02T06:44:20.340Z,2.85
2018-04-02T06:45:22.832Z,2.85
2018-04-02T06:46:25.333Z,2.47
2018-04-02T06:47:28.654Z,5.25
2018-04-02T06:48:31.174Z,3.90
2018-04-02T06:49:33.745Z,3.80
2018-04-02T06:50:37.044Z,4.85
2018-04-02T06:51:40.315Z,2.00
2018-04-02T06:52:43.592Z,1.87
2018-04-02T06:53:46.926Z,2.50
2018-04-02T06:54:49.457Z,2.30
2018-04-02T06:55:52.735Z,2.50
2018-04-02T06:56:56.016Z,4.70
2018-04-02T06:57:59.298Z,1.52
2018-04-02T06:59:02.569Z,2.80
2018-04-02T07:00:05.117Z,3.37
2018-04-02T07:01:08.729Z,5.72
2018-04-02T07:02:11.273Z,6.07
2018-04-02T07:03:13.821Z,5.40
2018-04-02T07:04:16.330Z,6.28
2018-04-02T07:05:18.856Z,3.30
2018-04-02T07:06:21.372Z,2.03
2018-04-02T07:07:24.687Z,1.95
2018-04-02T07:08:27.194Z,2.42
2018-04-02T07:09:29.698Z,6.87
2018-04-02T07:10:32.969Z,3.30
2018-04-02T07:11:36.240Z,4.22
2018-04-02T07:12:39.557Z,3.75
2018-04-02T07:13:42.074Z,3.65
2018-04-02T07:14:44.578Z,2.80
2018-04-02T07:15:47.114Z,2.67
2018-04-02T07:16:49.626Z,2.80
2018-04-02T07:17:52.124Z,2.70
2018-04-02T07:18:54.628Z,5.00
2018-04-02T07:19:57.904Z,3.50
2018-04-02T07:21:00.417Z,3.33
2018-04-02T07:22:02.948Z,5.72
2018-04-02T07:23:06.228Z,2.67
2018-04-02T07:24:09.508Z,2.35
2018-04-02T07:25:12.789Z,3.37
2018-04-02T07:26:16.096Z,3.60
2018-04-02T07:27:18.612Z,7.18
2018-04-02T07:28:21.158Z,2.17
2018-04-02T07:29:23.726Z,8.38
2018-04-02T07:30:26.202Z,2.08
2018-04-02T07:31:28.792Z,2.40
2018-04-02T07:32:31.329Z,9.48
2018-04-02T07:33:33.827Z,3.05
2018-04-02T07:34:36.429Z,6.03
2018-04-02T07:35:38.934Z,2.55
2018-04-02T07:36:41.469Z,5.10
2018-04-02T07:37:43.987Z,7.90
2018-04-02T07:38:46.498Z,2.85
2018-04-02T07:39:49.028Z,2.92
2018-04-02T07:40:52.305Z,2.87
2018-04-02T07:41:54.842Z,4.10
2018-04-02T07:42:57.375Z,3.58
2018-04-02T07:43:59.894Z,11.57
2018-04-02T07:45:03.913Z,2.40
2018-04-02T07:46:07.173Z,2.67
2018-04-02T07:47:09.696Z,3.37
2018-04-02T07:48:12.224Z,2.47
2018-04-02T07:49:15.496Z,3.67
2018-04-02T07:50:18.059Z,4.25
2018-04-02T07:51:20.581Z,3.37
2018-04-02T07:52:23.126Z,5.10
2018-04-02T07:53:25.647Z,3.50
2018-04-02T07:54:28.152Z,2.97
2018-04-02T07:55:31.472Z,5.12
2018-04-02T07:56:33.996Z,2.40
2018-04-02T07:57:36.548Z,4.82
2018-04-02T07:58:39.069Z,3.72
2018-04-02T07:59:41.589Z,3.42
2018-04-02T08:00:44.976Z,3.90
2018-04-02T08:01:47.546Z,2.80
2018-04-02T08:02:50.866Z,8.20
2018-04-02T08:03:54.267Z,2.65
2018-04-02T08:04:56.786Z,3.08
2018-04-02T08:06:00.107Z,2.55
2018-04-02T08:07:02.608Z,6.93
2018-04-02T08:08:05.209Z,3.30
2018-04-02T08:09:07.705Z,3.22
2018-04-02T08:10:10.205Z,2.87
2018-04-02T08:11:12.736Z,4.90
2018-04-02T08:12:15.244Z,3.08
2018-04-02T08:13:17.746Z,3.42
2018-04-02T08:14:20.256Z,2.67
2018-04-02T08:15:22.764Z,3.40
2018-04-02T08:16:25.283Z,8.05
2018-04-02T08:17:27.809Z,3.92
2018-04-02T08:18:30.321Z,8.65
2018-04-02T08:19:32.828Z,2.30
2018-04-02T08:20:35.330Z,7.75
2018-04-02T08:21:37.952Z,10.70
2018-04-02T08:22:41.250Z,3.10
2018-04-02T08:23:43.772Z,2.30
2018-04-02T08:24:46.271Z,6.87
2018-04-02T08:25:48.802Z,5.97
2018-04-02T08:26:51.352Z,4.55
2018-04-02T08:27:53.872Z,2.85
2018-04-02T08:28:56.447Z,4.85
2018-04-02T08:29:59.018Z,3.55
2018-04-02T08:31:01.531Z,5.15
2018-04-02T08:32:04.032Z,3.00
2018-04-02T08:33:07.336Z,10.38
2018-04-02T08:34:09.887Z,18.50
2018-04-02T08:35:12.403Z,6.25
2018-04-02T08:36:14.937Z,3.50
2018-04-02T08:37:17.450Z,2.87
2018-04-02T08:38:20.077Z,2.90
2018-04-02T08:39:22.621Z,5.10
2018-04-02T08:40:25.119Z,4.80
2018-04-02T08:41:27.631Z,3.85
2018-04-02T08:42:31.236Z,2.67
2018-04-02T08:43:33.762Z,2.33
2018-04-02T08:44:36.274Z,2.45
2018-04-02T08:45:38.816Z,3.12
2018-04-02T08:46:42.113Z,3.53
2018-04-02T08:47:44.697Z,9.07
2018-04-02T08:48:47.204Z,3.67
2018-04-02T08:49:49.719Z,4.75
2018-04-02T08:50:53.285Z,2.55
2018-04-02T08:51:56.703Z,9.57
2018-04-02T08:52:59.311Z,6.80
2018-04-02T08:54:01.932Z,2.80
2018-04-02T08:55:04.450Z,5.22
2018-04-02T08:56:06.963Z,3.92
2018-04-02T08:57:10.236Z,7.03
2018-04-02T08:58:13.523Z,7.12
2018-04-02T08:59:16.064Z,9.73
2018-04-02T09:00:20.086Z,5.30
2018-04-02T09:01:22.592Z,3.60
2018-04-02T09:02:25.103Z,3.70
2018-04-02T09:03:28.383Z,7.82
2018-04-02T09:04:31.707Z,2.25
2018-04-02T09:05:34.208Z,11.20
2018-04-02T09:06:36.715Z,5.30
2018-04-02T09:07:40.018Z,13.35
2018-04-02T09:08:42.532Z,4.60
2018-04-02T09:09:45.043Z,6.55
2018-04-02T09:10:47.557Z,9.27
2018-04-02T09:11:50.055Z,4.28
2018-04-02T09:12:53.324Z,8.98
2018-04-02T09:13:55.905Z,4.72
2018-04-02T09:14:58.467Z,6.93
2018-04-02T09:16:01.772Z,4.25
2018-04-02T09:17:04.297Z,16.17
2018-04-02T09:18:08.307Z,8.57
2018-04-02T09:19:10.870Z,15.48
2018-04-02T09:20:13.397Z,7.40
2018-04-02T09:21:15.908Z,9.18
2018-04-02T09:22:18.412Z,13.48
2018-04-02T09:23:20.935Z,16.35
2018-04-02T09:24:23.448Z,11.27
2018-04-02T09:25:25.950Z,9.45
2018-04-02T09:26:28.538Z,14.02
2018-04-02T09:27:31.876Z,15.68
2018-04-02T09:28:34.397Z,31.90
2018-04-02T09:29:37.674Z,30.83
2018-04-02T09:30:41.038Z,37.15
2018-04-02T09:31:43.575Z,44.78
2018-04-02T09:32:46.116Z,41.63
2018-04-02T09:33:48.635Z,40.05
2018-04-02T09:34:52.721Z,24.87
2018-04-02T09:35:55.304Z,88.82
2018-04-02T09:36:58.198Z,72.50
2018-04-02T09:38:01.117Z,76.10
2018-04-02T09:39:03.632Z,71.30
2018-04-02T09:40:06.154Z,85.45
2018-04-02T09:41:08.717Z,92.20
2018-04-02T09:42:11.239Z,80.20
2018-04-02T09:43:14.504Z,74.18
2018-04-02T09:44:17.056Z,82.18
2018-04-02T09:45:19.587Z,69.57
2018-04-02T09:46:22.096Z,66.05
2018-04-02T09:47:24.617Z,65.78
2018-04-02T09:48:27.268Z,68.32
2018-04-02T09:49:29.781Z,67.07
2018-04-02T09:50:32.373Z,64.22
2018-04-02T09:51:34.901Z,66.12
2018-04-02T09:52:37.443Z,67.47
2018-04-02T09:53:39.952Z,67.78
2018-04-02T09:54:42.473Z,59.25
2018-04-02T09:55:44.989Z,52.10
2018-04-02T09:56:47.500Z,69.43
2018-04-02T09:57:50.017Z,65.35
2018-04-02T09:58:52.538Z,58.50
2018-04-02T09:59:55.040Z,59.85
2018-04-02T10:01:00.520Z,54.00
2018-04-02T10:02:09.636Z,49.92
2018-04-02T10:03:12.949Z,50.20
2018-04-02T10:04:15.449Z,58.15
2018-04-02T10:05:17.968Z,61.85
2018-04-02T10:06:20.528Z,54.20
2018-04-02T10:07:23.040Z,49.72
2018-04-02T10:08:25.653Z,45.03
2018-04-02T10:09:28.166Z,46.60
2018-04-02T10:10:30.687Z,45.80
2018-04-02T10:11:33.204Z,52.85
2018-04-02T10:12:35.724Z,50.28
2018-04-02T10:13:38.287Z,48.45
2018-04-02T10:14:41.572Z,46.55
2018-04-02T10:15:44.881Z,48.80
2018-04-02T10:16:47.433Z,41.33
2018-04-02T10:17:49.977Z,47.33
2018-04-02T10:18:53.300Z,50.50
2018-04-02T10:19:55.854Z,33.55
2018-04-02T10:20:58.424Z,34.60
2018-04-02T10:22:00.960Z,39.85
2018-04-02T10:23:03.501Z,42.53
2018-04-02T10:24:06.090Z,36.40
2018-04-02T10:25:09.400Z,36.72
2018-04-02T10:26:12.030Z,35.13
2018-04-02T10:27:15.317Z,29.52
2018-04-02T10:28:17.874Z,24.27
2018-04-02T10:29:20.502Z,33.97
2018-04-02T10:30:23.041Z,35.72
2018-04-02T10:31:25.569Z,31.58
2018-04-02T10:32:28.075Z,37.60
2018-04-02T10:33:30.576Z,38.30
2018-04-02T10:34:33.125Z,29.83
2018-04-02T10:35:35.673Z,32.78
2018-04-02T10:36:38.215Z,33.40
2018-04-02T10:37:41.569Z,34.25
2018-04-02T10:38:44.101Z,26.70
2018-04-02T10:39:46.617Z,28.30
2018-04-02T10:40:49.128Z,32.42
2018-04-02T10:41:51.653Z,37.08
2018-04-02T10:42:54.301Z,33.55
2018-04-02T10:43:56.810Z,35.15
2018-04-02T10:45:00.106Z,47.38
2018-04-02T10:46:02.769Z,30.95
2018-04-02T10:47:05.288Z,31.55
2018-04-02T10:48:07.804Z,34.78
2018-04-02T10:49:11.884Z,35.75
2018-04-02T10:50:15.166Z,31.75
2018-04-02T10:51:17.684Z,21.83
2018-04-02T10:52:20.207Z,19.12
2018-04-02T10:53:23.488Z,22.40
2018-04-02T10:54:26.760Z,35.63
2018-04-02T10:55:29.360Z,32.17
2018-04-02T10:56:31.872Z,30.52
2018-04-02T10:57:34.486Z,24.30
2018-04-02T10:58:36.999Z,26.90
2018-04-02T10:59:39.526Z,24.67
2018-04-02T11:00:42.048Z,18.55
2018-04-02T11:01:44.595Z,58.17
2018-04-02T11:02:47.228Z,25.15
2018-04-02T11:03:49.748Z,39.45
2018-04-02T11:04:52.266Z,25.60
2018-04-02T11:05:54.760Z,23.62
2018-04-02T11:06:57.260Z,20.20
2018-04-02T11:08:00.550Z,20.95
2018-04-02T11:09:03.086Z,18.83
2018-04-02T11:10:05.609Z,18.70
2018-04-02T11:11:08.119Z,21.67
2018-04-02T11:12:10.634Z,27.37
2018-04-02T11:13:13.159Z,15.60
2018-04-02T11:14:15.680Z,31.10
2018-04-02T11:15:18.204Z,17.60
2018-04-02T11:16:21.513Z,27.92
2018-04-02T11:17:24.068Z,15.85
2018-04-02T11:18:27.396Z,21.85
2018-04-02T11:19:29.912Z,26.98
2018-04-02T11:20:33.183Z,19.02
2018-04-02T11:21:36.505Z,18.33
2018-04-02T11:22:39.047Z,20.42
2018-04-02T11:23:42.356Z,18.02
2018-04-02T11:24:44.885Z,13.43
2018-04-02T11:25:48.169Z,14.95
2018-04-02T11:26:50.684Z,23.55
2018-04-02T11:27:53.221Z,16.92
2018-04-02T11:28:55.805Z,18.08
2018-04-02T11:29:59.046Z,22.40
2018-04-02T11:31:02.324Z,16.65
2018-04-02T11:32:05.600Z,17.37
2018-04-02T11:33:08.918Z,20.92
2018-04-02T11:34:11.607Z,18.58
2018-04-02T11:35:14.175Z,18.05
2018-04-02T11:36:16.682Z,13.25
2018-04-02T11:37:19.221Z,16.17
2018-04-02T11:38:21.867Z,12.15
2018-04-02T11:39:24.416Z,21.33
2018-04-02T11:40:27.693Z,15.13
2018-04-02T11:41:31.002Z,9.90
2018-04-02T11:42:33.524Z,13.00
2018-04-02T11:43:36.037Z,17.80
2018-04-02T11:44:38.563Z,14.23
2018-04-02T11:45:41.084Z,22.55
2018-04-02T11:46:43.585Z,13.13
2018-04-02T11:47:46.206Z,12.93
2018-04-02T11:48:48.724Z,13.60
2018-04-02T11:49:51.280Z,16.92
2018-04-02T11:50:53.801Z,16.52
2018-04-02T11:51:56.332Z,15.05
2018-04-02T11:52:59.633Z,8.68
2018-04-02T11:54:02.138Z,15.13
2018-04-02T11:55:04.676Z,14.45
2018-04-02T11:56:07.205Z,9.15
2018-04-02T11:57:09.734Z,8.45
2018-04-02T11:58:12.249Z,13.02
2018-04-02T11:59:15.579Z,13.77
2018-04-02T12:00:18.099Z,13.40
2018-04-02T12:01:21.367Z,11.65
2018-04-02T12:02:23.875Z,11.45
2018-04-02T12:03:26.441Z,10.55
2018-04-02T12:04:28.940Z,11.27
2018-04-02T12:05:31.453Z,8.07
2018-04-02T12:06:33.948Z,9.38
2018-04-02T12:07:36.463Z,10.93
2018-04-02T12:08:39.715Z,9.80
2018-04-02T12:09:42.234Z,14.82
2018-04-02T12:10:44.795Z,10.60
2018-04-02T12:11:47.313Z,12.85
2018-04-02T12:12:49.827Z,11.65
2018-04-02T12:13:52.395Z,9.63
2018-04-02T12:14:54.933Z,6.60
2018-04-02T12:15:57.454Z,13.15
2018-04-02T12:16:59.968Z,9.30
2018-04-02T12:18:02.487Z,8.85
2018-04-02T12:19:05.246Z,7.45
2018-04-02T12:20:07.771Z,13.82
2018-04-02T12:21:11.074Z,8.13
2018-04-02T12:22:13.637Z,8.68
2018-04-02T12:23:16.901Z,7.10
2018-04-02T12:24:19.487Z,15.18
2018-04-02T12:25:22.952Z,6.85
2018-04-02T12:26:25.492Z,7.00
2018-04-02T12:27:28.055Z,4.05
2018-04-02T12:28:30.592Z,7.68
2018-04-02T12:29:33.297Z,7.30
2018-04-02T12:30:35.811Z,8.75
2018-04-02T12:31:39.575Z,10.00
2018-04-02T12:32:42.129Z,6.80
2018-04-02T12:33:45.173Z,9.57
2018-04-02T12:34:47.757Z,11.27
2018-04-02T12:35:50.397Z,11.70
2018-04-02T12:36:52.993Z,6.75
2018-04-02T12:37:55.985Z,7.03
2018-04-02T12:38:58.634Z,11.07
2018-04-02T12:40:01.144Z,8.30
2018-04-02T12:41:03.649Z,7.37
2018-04-02T12:42:06.324Z,12.43
2018-04-02T12:43:08.973Z,4.85
2018-04-02T12:44:12.295Z,8.95
2018-04-02T12:45:14.812Z,5.50
2018-04-02T12:46:21.095Z,5.53
2018-04-02T12:47:23.837Z,9.30
2018-04-02T12:48:27.359Z,7.03
2018-04-02T12:49:30.622Z,6.15
2018-04-02T12:50:33.191Z,11.93
2018-04-02T12:51:36.995Z,10.05
2018-04-02T12:52:39.505Z,5.80
2018-04-02T12:53:42.374Z,6.22
2018-04-02T12:54:44.885Z,5.90
2018-04-02T12:55:47.399Z,9.07
2018-04-02T12:56:50.082Z,7.68
2018-04-02T12:57:52.607Z,6.87
2018-04-02T12:58:55.123Z,11.95
2018-04-02T12:59:57.782Z,7.12
2018-04-02T13:01:00.345Z,5.25
2018-04-02T13:02:03.621Z,10.10
2018-04-02T13:03:06.916Z,6.10
2018-04-02T13:04:09.520Z,7.32
2018-04-02T13:05:12.049Z,6.43
2018-04-02T13:06:14.653Z,6.37
2018-04-02T13:07:17.193Z,7.35
2018-04-02T13:08:20.472Z,9.68
2018-04-02T13:09:23.079Z,6.57
2018-04-02T13:10:25.580Z,3.80
2018-04-02T13:11:28.088Z,4.75
2018-04-02T13:12:31.393Z,4.57
2018-04-02T13:13:33.921Z,7.70
2018-04-02T13:14:36.503Z,7.28
2018-04-02T13:15:39.154Z,6.32
2018-04-02T13:16:41.770Z,3.30
2018-04-02T13:17:44.536Z,5.32
2018-04-02T13:18:47.099Z,4.68
2018-04-02T13:19:49.738Z,5.12
2018-04-02T13:20:53.035Z,7.05
2018-04-02T13:21:56.352Z,5.57
2018-04-02T13:22:59.448Z,8.18
2018-04-02T13:24:02.325Z,8.93
2018-04-02T13:25:04.866Z,9.70
2018-04-02T13:26:09.032Z,10.52
2018-04-02T13:27:12.349Z,5.62
2018-04-02T13:28:14.941Z,13.62
2018-04-02T13:29:17.449Z,6.60
2018-04-02T13:30:20.766Z,8.77
2018-04-02T13:31:23.375Z,19.77
2018-04-02T13:32:25.838Z,10.07
2018-04-02T13:33:28.427Z,10.30
2018-04-02T13:34:30.932Z,6.20
2018-04-02T13:35:33.431Z,6.10
2018-04-02T13:36:36.893Z,10.93
2018-04-02T13:37:39.411Z,4.97
2018-04-02T13:38:42.728Z,6.93
2018-04-02T13:39:45.290Z,7.05
2018-04-02T13:40:47.821Z,6.37
2018-04-02T13:41:50.328Z,5.50
2018-04-02T13:42:52.867Z,5.85
2018-04-02T13:43:56.180Z,8.18
2018-04-02T13:44:58.689Z,6.65
2018-04-02T13:46:01.234Z,8.57
2018-04-02T13:47:03.754Z,6.35
2018-04-02T13:48:06.450Z,8.95
2018-04-02T13:49:08.968Z,7.55